createdAt,value
2022-10-11T00:02:36.980Z,20.85
2022-10-11T00:05:26.336Z,17.35
2022-10-11T00:08:15.979Z,22.10
2022-10-11T00:11:06.915Z,17.40
2022-10-11T00:13:58.208Z,20.40
2022-10-11T00:16:47.711Z,20.98
2022-10-11T00:19:36.787Z,20.00
2022-10-11T00:22:25.714Z,18.70
2022-10-11T00:25:15.276Z,18.90
2022-10-11T00:28:04.944Z,19.95
2022-10-11T00:30:55.626Z,21.67
2022-10-11T00:33:45.245Z,21.60
2022-10-11T00:36:34.751Z,20.52
2022-10-11T00:39:24.456Z,20.73
2022-10-11T00:42:14.732Z,22.58
2022-10-11T00:45:37.471Z,19.88
2022-10-11T00:48:30.312Z,24.42
2022-10-11T00:51:22.377Z,21.25
2022-10-11T00:54:14.146Z,18.33
2022-10-11T00:57:10.259Z,27.90
2022-10-11T01:00:00.338Z,22.38
2022-10-11T01:02:49.996Z,23.98
2022-10-11T01:05:41.299Z,21.27
2022-10-11T01:08:30.800Z,25.88
2022-10-11T01:11:21.599Z,20.40
2022-10-11T01:14:21.960Z,19.85
2022-10-11T01:17:15.763Z,20.92
2022-10-11T01:20:16.799Z,24.23
2022-10-11T01:23:20.844Z,19.52
2022-10-11T01:26:29.000Z,25.90
2022-10-11T01:29:23.452Z,22.98
2022-10-11T01:32:17.601Z,21.63
2022-10-11T01:35:09.119Z,23.77
2022-10-11T01:38:02.051Z,21.05
2022-10-11T01:40:53.328Z,22.83
2022-10-11T01:43:43.415Z,21.52
2022-10-11T01:46:33.267Z,24.70
2022-10-11T01:49:24.327Z,19.30
2022-10-11T01:52:13.599Z,21.75
2022-10-11T01:55:10.499Z,24.67
2022-10-11T01:58:05.006Z,23.52
2022-10-11T02:00:56.823Z,27.75
2022-10-11T02:03:48.338Z,23.10
2022-10-11T02:06:44.401Z,27.38
2022-10-11T02:09:36.163Z,30.42
2022-10-11T02:12:31.841Z,29.30
2022-10-11T02:15:23.650Z,27.08
2022-10-11T02:18:18.203Z,33.88
2022-10-11T02:21:10.317Z,24.05
2022-10-11T02:24:06.178Z,33.83
2022-10-11T02:26:58.466Z,27.20
2022-10-11T02:29:49.536Z,32.17
2022-10-11T02:32:43.040Z,29.10
2022-10-11T02:35:38.983Z,30.10
2022-10-11T02:38:31.917Z,28.73
2022-10-11T02:41:28.811Z,28.33
2022-10-11T02:44:24.323Z,31.02
2022-10-11T02:47:14.276Z,29.55
2022-10-11T02:50:03.723Z,29.77
2022-10-11T02:52:53.159Z,33.80
2022-10-11T02:55:42.518Z,36.45
2022-10-11T02:58:33.251Z,28.60
2022-10-11T03:01:22.564Z,34.45
2022-10-11T03:04:13.387Z,30.45
2022-10-11T03:07:02.458Z,32.35
2022-10-11T03:09:51.948Z,38.90
2022-10-11T03:12:40.826Z,35.17
2022-10-11T03:15:32.064Z,35.00
2022-10-11T03:18:22.352Z,33.65
2022-10-11T03:21:11.697Z,33.90
2022-10-11T03:24:00.854Z,40.00
2022-10-11T03:26:50.219Z,36.95
2022-10-11T03:29:39.272Z,38.00
2022-10-11T03:32:29.962Z,33.25
2022-10-11T03:35:18.990Z,34.40
2022-10-11T03:38:12.782Z,39.20
2022-10-11T03:41:01.948Z,31.75
2022-10-11T03:43:51.649Z,35.42
2022-10-11T03:46:40.601Z,37.35
2022-10-11T03:49:31.482Z,43.28
2022-10-11T03:52:20.891Z,38.80
2022-10-11T03:55:11.101Z,36.35
2022-10-11T03:58:00.399Z,40.03
2022-10-11T04:00:49.771Z,37.50
2022-10-11T04:03:39.238Z,37.72
2022-10-11T04:06:30.295Z,41.40
2022-10-11T04:09:19.461Z,33.88
2022-10-11T04:12:09.064Z,35.83
2022-10-11T04:14:58.115Z,35.80
2022-10-11T04:17:47.986Z,36.97
2022-10-11T04:20:37.584Z,27.90
2022-10-11T04:23:30.317Z,34.17
2022-10-11T04:26:19.779Z,38.30
2022-10-11T04:29:08.682Z,37.67
2022-10-11T04:31:58.174Z,27.42
2022-10-11T04:34:47.435Z,33.97
2022-10-11T04:37:37.301Z,30.63
2022-10-11T04:40:27.936Z,33.30
2022-10-11T04:43:18.092Z,30.25
2022-10-11T04:46:08.486Z,36.67
2022-10-11T04:48:58.270Z,32.17
2022-10-11T04:51:47.161Z,37.88
2022-10-11T04:54:36.998Z,34.88
2022-10-11T04:57:28.110Z,35.78
2022-10-11T05:00:17.451Z,33.55
2022-10-11T05:03:06.707Z,35.53
2022-10-11T05:05:56.372Z,33.58
2022-10-11T05:08:45.744Z,27.85
2022-10-11T05:11:35.358Z,32.33
2022-10-11T05:14:25.996Z,31.20
2022-10-11T05:17:15.076Z,26.65
2022-10-11T05:20:04.335Z,31.20
2022-10-11T05:22:53.512Z,34.83
2022-10-11T05:25:42.880Z,26.25
2022-10-11T05:28:32.428Z,26.88
2022-10-11T05:31:23.426Z,30.35
2022-10-11T05:34:12.500Z,27.60
2022-10-11T05:37:01.370Z,29.42
2022-10-11T05:39:51.006Z,29.60
2022-10-11T05:42:40.190Z,29.02
2022-10-11T05:45:29.695Z,31.50
2022-10-11T05:48:20.483Z,33.28
2022-10-11T05:51:12.021Z,25.45
2022-10-11T05:54:01.201Z,27.55
2022-10-11T05:56:50.402Z,28.45
2022-10-11T05:59:39.793Z,31.73
2022-10-11T06:02:29.288Z,28.83
2022-10-11T06:05:20.240Z,31.70
2022-10-11T06:08:11.150Z,33.28
2022-10-11T06:11:00.651Z,31.27
2022-10-11T06:13:50.940Z,30.45
2022-10-11T06:16:40.448Z,27.48
2022-10-11T06:19:29.761Z,27.60
2022-10-11T06:22:20.727Z,27.65
2022-10-11T06:25:10.827Z,28.30
2022-10-11T06:27:59.694Z,25.92
2022-10-11T06:30:49.113Z,24.15
2022-10-11T06:33:39.620Z,25.73
2022-10-11T06:36:29.085Z,27.70
2022-10-11T06:39:20.321Z,22.60
2022-10-11T06:42:09.909Z,25.75
2022-10-11T06:44:59.108Z,24.70
2022-10-11T06:47:48.428Z,23.65
2022-10-11T06:50:58.613Z,25.02
2022-10-11T06:53:51.665Z,21.73
2022-10-11T06:56:42.727Z,22.65
2022-10-11T06:59:31.662Z,24.30
2022-10-11T07:02:20.702Z,25.00
2022-10-11T07:05:10.727Z,20.58
2022-10-11T07:07:59.946Z,23.85
2022-10-11T07:10:48.848Z,25.23
2022-10-11T07:13:39.739Z,20.00
2022-10-11T07:16:29.289Z,21.13
2022-10-11T07:19:18.331Z,21.05
2022-10-11T07:22:07.526Z,22.55
2022-10-11T07:24:56.808Z,27.95
2022-10-11T07:27:46.008Z,27.08
2022-10-11T07:30:40.719Z,27.17
2022-10-11T07:33:29.690Z,32.22
2022-10-11T07:36:19.352Z,27.33
2022-10-11T07:39:09.426Z,30.27
2022-10-11T07:41:58.478Z,32.80
2022-10-11T07:44:48.335Z,27.33
2022-10-11T07:47:39.059Z,30.38
2022-10-11T07:50:28.623Z,21.30
2022-10-11T07:53:17.782Z,25.02
2022-10-11T07:56:07.703Z,28.55
2022-10-11T07:58:58.320Z,26.83
2022-10-11T08:01:47.801Z,28.85
2022-10-11T08:04:38.654Z,29.25
2022-10-11T08:07:28.281Z,26.92
2022-10-11T08:10:17.846Z,28.63
2022-10-11T08:13:07.329Z,25.50
2022-10-11T08:15:56.372Z,29.17
2022-10-11T08:18:45.217Z,25.25
2022-10-11T08:21:36.349Z,27.10
2022-10-11T08:24:25.603Z,23.92
2022-10-11T08:27:14.672Z,23.30
2022-10-11T08:30:03.214Z,24.17
2022-10-11T08:32:52.568Z,23.73
2022-10-11T08:35:41.508Z,25.65
2022-10-11T08:38:31.976Z,23.42
2022-10-11T11:35:26.005Z,13.73
2022-10-11T11:38:24.837Z,13.93
2022-10-11T11:41:19.318Z,12.98
2022-10-11T11:44:13.409Z,13.52
2022-10-11T11:47:05.485Z,13.77
2022-10-11T11:49:58.528Z,13.80
2022-10-11T11:52:51.472Z,13.70
2022-10-11T11:55:46.322Z,13.30
2022-10-11T11:58:40.546Z,11.82
2022-10-11T12:01:31.832Z,18.40
2022-10-11T12:04:24.571Z,11.95
2022-10-11T12:07:17.347Z,10.73
2022-10-11T12:10:28.897Z,15.80
2022-10-11T12:13:19.875Z,14.35
2022-10-11T12:16:12.137Z,14.40
2022-10-11T12:19:03.885Z,10.32
2022-10-11T12:22:20.525Z,13.30
2022-10-11T12:25:37.030Z,13.82
2022-10-11T12:29:03.634Z,9.30
2022-10-11T12:32:12.486Z,12.68
2022-10-11T12:35:34.903Z,11.60
2022-10-11T12:38:25.785Z,9.85
2022-10-11T12:41:51.726Z,8.52
2022-10-11T12:44:42.039Z,12.38
2022-10-11T12:47:41.101Z,10.30
2022-10-11T12:50:41.294Z,11.48
2022-10-11T12:53:50.633Z,12.43
2022-10-11T12:56:54.486Z,9.52
2022-10-11T12:59:46.135Z,14.63
2022-10-11T13:02:42.957Z,6.90
2022-10-11T13:05:39.896Z,11.00
2022-10-11T13:08:33.791Z,9.57
2022-10-11T13:11:24.869Z,9.93
2022-10-11T13:14:20.779Z,9.45
2022-10-11T13:17:18.749Z,10.93
2022-10-11T13:20:17.604Z,13.48
2022-10-11T13:23:20.163Z,6.85
2022-10-11T13:26:10.272Z,15.13
2022-10-11T13:29:00.166Z,10.75
2022-10-11T13:31:51.189Z,10.50
2022-10-11T13:34:42.997Z,11.10
2022-10-11T13:37:32.724Z,8.57
2022-10-11T13:40:24.090Z,11.57
2022-10-11T13:43:15.662Z,7.55
2022-10-11T13:46:06.882Z,8.20
2022-10-11T13:49:02.530Z,10.13
2022-10-11T13:52:00.386Z,11.43
2022-10-11T13:54:57.715Z,11.77
2022-10-11T13:57:52.593Z,11.32
2022-10-11T14:00:42.104Z,9.60
2022-10-11T14:03:39.309Z,11.40
2022-10-11T14:06:44.987Z,11.23
2022-10-11T14:09:38.307Z,12.98
2022-10-11T14:12:38.432Z,9.25
2022-10-11T14:15:31.211Z,12.20
2022-10-11T14:18:44.334Z,10.93
2022-10-11T14:21:36.957Z,12.18
2022-10-11T14:24:27.763Z,10.38
2022-10-11T14:27:20.569Z,10.25
2022-10-11T14:30:31.501Z,9.07
2022-10-11T14:33:21.172Z,9.40
2022-10-11T14:36:10.265Z,10.00
2022-10-11T14:38:59.197Z,12.50
2022-10-11T14:41:50.399Z,8.55
2022-10-11T14:44:39.700Z,12.65
2022-10-11T14:47:28.599Z,11.68
2022-10-11T14:50:31.550Z,11.35
2022-10-11T14:53:21.205Z,10.20
2022-10-11T14:56:10.433Z,11.75
2022-10-11T14:59:01.003Z,8.10
2022-10-11T15:01:52.104Z,8.55
2022-10-11T15:04:41.448Z,6.95
2022-10-11T15:07:30.848Z,8.07
2022-10-11T15:10:22.402Z,10.73
2022-10-11T15:13:11.806Z,8.10
2022-10-11T15:16:03.700Z,8.48
2022-10-11T15:18:53.621Z,9.30
2022-10-11T15:21:42.664Z,8.02
2022-10-11T15:24:32.276Z,14.18
2022-10-11T15:27:26.883Z,8.27
2022-10-11T15:30:19.533Z,11.25
2022-10-11T15:33:10.631Z,10.23
2022-10-11T15:36:00.107Z,9.73
2022-10-11T15:38:50.126Z,11.90
2022-10-11T15:41:39.771Z,10.25
2022-10-11T15:44:28.740Z,14.90
2022-10-11T15:47:19.376Z,12.98
2022-10-11T15:50:23.624Z,7.90
2022-10-11T15:53:17.550Z,8.35
2022-10-11T15:56:10.055Z,9.73
2022-10-11T15:59:00.018Z,9.52
2022-10-11T16:01:49.297Z,10.00
2022-10-11T16:04:38.695Z,12.13
2022-10-11T16:07:29.503Z,9.20
2022-10-11T16:10:19.060Z,11.88
2022-10-11T16:13:08.307Z,11.55
2022-10-11T16:15:57.213Z,14.23
2022-10-11T16:18:46.480Z,15.45
2022-10-11T16:21:35.868Z,10.15
2022-10-11T16:24:27.615Z,11.15
2022-10-11T16:27:18.956Z,13.35
2022-10-11T16:30:11.878Z,11.27
2022-10-11T16:33:01.118Z,10.65
2022-10-11T16:35:50.975Z,15.30
2022-10-11T16:38:39.952Z,8.13
2022-10-11T16:41:30.323Z,10.15
2022-10-11T16:44:20.245Z,10.15
2022-10-11T16:47:09.327Z,8.32
2022-10-11T16:49:59.415Z,12.73
2022-10-11T16:52:48.401Z,8.95
2022-10-11T16:55:38.015Z,8.40
2022-10-11T16:58:29.029Z,11.20
2022-10-11T17:01:18.216Z,7.60
2022-10-11T17:04:07.854Z,13.07
2022-10-11T17:06:58.402Z,9.88
2022-10-11T17:09:48.908Z,11.25
2022-10-11T17:12:39.045Z,10.00
2022-10-11T17:15:31.275Z,8.00
2022-10-11T17:18:20.739Z,12.27
2022-10-11T17:21:10.927Z,10.80
2022-10-11T17:23:59.779Z,8.95
2022-10-11T17:26:48.782Z,8.65
2022-10-11T17:29:38.117Z,10.93
2022-10-11T17:32:29.094Z,8.40
2022-10-11T17:35:18.834Z,9.88
2022-10-11T17:38:08.346Z,10.32
2022-10-11T17:41:01.901Z,13.10
2022-10-11T17:43:51.379Z,11.35
2022-10-11T17:46:41.679Z,11.10
2022-10-11T17:49:32.957Z,12.00
2022-10-11T17:52:22.346Z,11.10
2022-10-11T17:55:11.806Z,12.48
2022-10-11T17:58:00.537Z,10.90
2022-10-11T18:00:49.811Z,10.45
2022-10-11T18:03:39.417Z,10.27
2022-10-11T18:06:32.194Z,10.50
2022-10-11T18:09:21.158Z,9.55
2022-10-11T18:12:10.383Z,12.48
2022-10-11T18:14:59.399Z,14.27
2022-10-11T18:17:49.008Z,11.88
2022-10-11T18:20:38.624Z,11.68
2022-10-11T18:23:29.286Z,12.70
2022-10-11T18:26:20.841Z,15.93
2022-10-11T18:29:10.048Z,15.77
2022-10-11T18:31:58.976Z,17.60
2022-10-11T18:34:48.280Z,15.88
2022-10-11T18:37:37.679Z,15.43
2022-10-11T18:40:28.018Z,15.38
2022-10-11T18:43:17.536Z,15.13
2022-10-11T18:46:07.961Z,15.25
2022-10-11T18:48:59.142Z,19.23
2022-10-11T18:51:48.893Z,18.75
2022-10-11T18:54:37.732Z,19.67
2022-10-11T18:57:30.936Z,19.95
2022-10-11T19:00:39.672Z,23.58
2022-10-11T19:03:34.834Z,20.35
2022-10-11T19:06:25.246Z,21.60
2022-10-11T19:09:17.599Z,25.05
2022-10-11T19:12:06.979Z,24.65
2022-10-11T19:14:57.849Z,24.63
2022-10-11T19:17:47.642Z,23.00
2022-10-11T19:20:37.096Z,22.17
2022-10-11T19:23:25.858Z,27.05
2022-10-11T19:26:16.464Z,23.85
2022-10-11T19:29:07.299Z,22.70
2022-10-11T19:31:59.172Z,19.83
2022-10-11T19:34:48.422Z,24.23
2022-10-11T19:37:39.504Z,28.30
2022-10-11T19:40:30.358Z,27.40
2022-10-11T19:43:22.617Z,23.27
2022-10-11T19:46:13.557Z,23.77
2022-10-11T19:49:04.811Z,26.80
2022-10-11T19:51:54.379Z,24.67
2022-10-11T19:54:43.366Z,27.67
2022-10-11T19:57:32.534Z,20.92
2022-10-11T20:00:22.848Z,26.05
2022-10-11T20:03:12.138Z,24.40
2022-10-11T20:06:03.202Z,29.60
2022-10-11T20:09:10.379Z,24.13
2022-10-11T20:12:01.496Z,26.65
2022-10-11T20:14:50.587Z,28.98
2022-10-11T20:17:51.905Z,27.48
2022-10-11T20:20:41.356Z,29.58
2022-10-11T20:23:32.840Z,29.27
2022-10-11T20:26:23.715Z,31.42
2022-10-11T20:29:12.778Z,31.25
2022-10-11T20:32:02.067Z,29.65
2022-10-11T20:34:50.890Z,29.58
2022-10-11T20:37:40.683Z,27.50
2022-10-11T20:40:31.668Z,28.25
2022-10-11T20:43:20.878Z,27.02
2022-10-11T20:46:11.590Z,33.17
2022-10-11T20:49:02.849Z,29.90
2022-10-11T20:51:51.998Z,32.78
2022-10-11T20:54:41.710Z,32.35
2022-10-11T20:57:32.436Z,27.20
2022-10-11T21:00:23.120Z,32.95
2022-10-11T21:03:12.549Z,28.80
2022-10-11T21:06:01.909Z,29.80
2022-10-11T21:08:51.537Z,29.70
2022-10-11T21:11:40.379Z,33.85
2022-10-11T21:14:31.059Z,29.45
2022-10-11T21:17:20.418Z,30.88
2022-10-11T21:20:10.824Z,33.22
2022-10-11T21:22:59.879Z,27.40
2022-10-11T21:25:49.162Z,26.10
2022-10-11T21:28:39.070Z,25.88
2022-10-11T21:31:34.080Z,28.45
2022-10-11T21:34:24.169Z,27.98
2022-10-11T21:37:13.466Z,28.25
2022-10-11T21:40:02.544Z,33.83
2022-10-11T21:42:51.749Z,27.25
2022-10-11T21:45:41.004Z,24.45
2022-10-11T21:48:32.734Z,23.85
2022-10-11T21:51:26.734Z,22.83
2022-10-11T21:54:15.992Z,24.48
2022-10-11T21:57:04.981Z,24.65
2022-10-11T21:59:54.419Z,22.92
2022-10-11T22:02:43.764Z,19.80
2022-10-11T22:05:34.137Z,21.55
2022-10-11T22:08:23.401Z,23.58
2022-10-11T22:11:13.298Z,22.13
2022-10-11T22:14:03.278Z,22.92
2022-10-11T22:16:52.876Z,23.05
2022-10-11T22:19:42.252Z,19.88
2022-10-11T22:22:32.767Z,25.05
2022-10-11T22:25:22.302Z,23.75
2022-10-11T22:28:11.373Z,21.65
2022-10-11T22:31:00.546Z,21.00
2022-10-11T22:33:50.246Z,28.85
2022-10-11T22:36:39.720Z,26.52
2022-10-11T22:39:31.255Z,27.42
2022-10-11T22:42:24.138Z,25.23
2022-10-11T22:45:16.331Z,29.55
2022-10-11T22:48:05.744Z,24.77
2022-10-11T22:50:55.122Z,23.90
2022-10-11T22:53:44.628Z,24.02
2022-10-11T22:56:35.927Z,24.65
2022-10-11T22:59:25.170Z,23.30
2022-10-11T23:02:14.353Z,26.50
2022-10-11T23:05:04.908Z,26.60
2022-10-11T23:07:54.015Z,25.45
2022-10-11T23:10:43.008Z,24.95
2022-10-11T23:13:33.337Z,27.73
2022-10-11T23:16:22.152Z,22.23
2022-10-11T23:19:11.193Z,22.65
2022-10-11T23:22:00.370Z,27.17
2022-10-11T23:24:49.515Z,23.77
2022-10-11T23:27:39.191Z,25.02
